Time;durP1;ratioP1;P1;durP2;ratioP2;P2;SDS_P1;SDS_P2;PMS_P1;PMS_P2;Temp;Humidity;BMP_temperature;BMP_pressure;BME280_temperature;BME280_humidity;BME280_pressure;Samples;Min_cycle;Max_cycle;Signal;HPM_P1;HPM_P2
2023/07/06 00:01:18;;;;;;;8.77;8.57;;;15.10;99.90;;;;;;5002105;28;20288;-79
2023/07/06 00:03:45;;;;;;;8.80;8.60;;;15.10;99.90;;;;;;5001772;28;20233;-79
2023/07/06 00:06:15;;;;;;;9.00;8.80;;;15.00;99.90;;;;;;5002106;28;20244;-79
2023/07/06 00:08:47;;;;;;;8.75;8.55;;;14.90;99.90;;;;;;5001641;28;20239;-80
2023/07/06 00:11:15;;;;;;;8.77;8.57;;;14.90;99.90;;;;;;5001862;28;20268;-79
2023/07/06 00:13:46;;;;;;;8.80;8.60;;;14.80;99.90;;;;;;5001651;28;20319;-79
2023/07/06 00:16:14;;;;;;;8.70;8.50;;;14.80;99.90;;;;;;5001860;28;20301;-79
2023/07/06 00:18:43;;;;;;;9.10;8.90;;;14.80;99.90;;;;;;5003122;28;20236;-79
2023/07/06 00:21:16;;;;;;;8.93;8.73;;;14.70;99.90;;;;;;5002611;28;20256;-79
2023/07/06 00:23:44;;;;;;;8.90;8.70;;;14.70;99.90;;;;;;5002907;28;20316;-79
2023/07/06 00:26:16;;;;;;;8.90;8.70;;;14.60;99.90;;;;;;5002564;28;20237;-79
2023/07/06 00:28:48;;;;;;;9.05;8.85;;;14.50;99.90;;;;;;5002831;28;20245;-79
2023/07/06 00:31:21;;;;;;;8.93;8.73;;;14.50;99.90;;;;;;5002069;28;21030;-79
2023/07/06 00:33:52;;;;;;;9.10;8.88;;;14.40;99.90;;;;;;5001060;28;20247;-79
2023/07/06 00:36:21;;;;;;;8.80;8.60;;;14.40;99.90;;;;;;5000362;28;20237;-80
2023/07/06 00:38:50;;;;;;;9.13;8.90;;;14.40;99.90;;;;;;5001208;28;20232;-79
2023/07/06 00:41:18;;;;;;;9.00;8.80;;;14.30;99.90;;;;;;5001761;28;20255;-79
2023/07/06 00:43:58;;;;;;;8.65;8.45;;;14.30;99.90;;;;;;5002307;28;20233;-79
2023/07/06 00:46:36;;;;;;;9.02;8.82;;;14.20;99.90;;;;;;5005416;28;20225;-79
2023/07/06 00:49:06;;;;;;;8.95;8.75;;;14.20;99.90;;;;;;5004987;28;20229;-79
2023/07/06 00:51:38;;;;;;;9.00;8.80;;;14.20;99.90;;;;;;5002378;28;20233;-79
2023/07/06 00:54:12;;;;;;;9.02;8.82;;;14.30;99.90;;;;;;5002231;28;20319;-79
2023/07/06 00:56:43;;;;;;;8.87;8.67;;;14.30;99.90;;;;;;5001194;28;20304;-80
2023/07/06 00:59:21;;;;;;;8.80;8.60;;;14.30;99.90;;;;;;5000615;28;20328;-80
2023/07/06 01:01:51;;;;;;;8.77;8.57;;;14.40;99.90;;;;;;5000895;28;20229;-79
2023/07/06 01:04:21;;;;;;;9.18;8.88;;;14.50;99.90;;;;;;5000554;28;20271;-78
2023/07/06 01:06:52;;;;;;;9.60;9.30;;;14.40;99.90;;;;;;5001045;28;20745;-79
2023/07/06 01:09:20;;;;;;;9.77;9.48;;;14.30;99.90;;;;;;5000787;28;20244;-79
2023/07/06 01:11:49;;;;;;;9.95;9.65;;;14.30;99.90;;;;;;5000931;28;20239;-78
2023/07/06 01:14:19;;;;;;;10.00;9.70;;;14.10;99.90;;;;;;5000894;28;20240;-79
2023/07/06 01:16:54;;;;;;;10.02;9.73;;;14.10;99.90;;;;;;5001671;28;20239;-79
2023/07/06 01:19:53;;;;;;;9.73;9.43;;;14.00;99.90;;;;;;5000930;28;20280;-79
2023/07/06 01:22:44;;;;;;;10.10;9.80;;;13.90;99.90;;;;;;5001821;28;20264;-78
2023/07/06 01:25:27;;;;;;;10.10;9.80;;;13.90;99.90;;;;;;5001955;28;20248;-79
2023/07/06 01:28:23;;;;;;;10.10;9.80;;;13.80;99.90;;;;;;5001857;28;20232;-79
2023/07/06 01:31:35;;;;;;;10.20;9.90;;;13.70;99.90;;;;;;4988770;28;20243;-77
2023/07/06 01:34:12;;;;;;;10.10;9.80;;;13.70;99.90;;;;;;5012934;28;20240;-77
2023/07/06 01:36:47;;;;;;;10.03;9.73;;;13.60;99.90;;;;;;5018534;28;20252;-77
2023/07/06 01:39:17;;;;;;;10.20;9.90;;;13.50;99.90;;;;;;5017565;28;20244;-77
2023/07/06 01:41:52;;;;;;;10.27;9.97;;;13.50;99.90;;;;;;5013224;28;20285;-78
2023/07/06 01:44:19;;;;;;;9.93;9.63;;;13.40;99.90;;;;;;5001930;28;20284;-78
2023/07/06 01:46:56;;;;;;;10.00;9.70;;;13.40;99.90;;;;;;5001092;28;20229;-80
2023/07/06 01:49:28;;;;;;;10.10;9.80;;;13.30;99.90;;;;;;5004092;28;20271;-79
2023/07/06 01:52:05;;;;;;;10.10;9.80;;;13.30;99.90;;;;;;5005144;28;20225;-79
2023/07/06 01:54:41;;;;;;;10.20;9.90;;;13.30;99.90;;;;;;4984526;28;20217;-80
2023/07/06 01:57:18;;;;;;;10.00;9.70;;;13.20;99.90;;;;;;4984813;28;20243;-79
2023/07/06 01:59:53;;;;;;;10.30;10.00;;;13.10;99.90;;;;;;4984351;28;20249;-79
2023/07/06 02:02:25;;;;;;;10.30;10.00;;;13.10;99.90;;;;;;4985953;28;20220;-79
2023/07/06 02:04:55;;;;;;;10.00;9.70;;;13.10;99.90;;;;;;4987774;28;20226;-79
2023/07/06 02:07:24;;;;;;;10.33;10.03;;;13.10;99.90;;;;;;4986742;28;20248;-80
2023/07/06 02:09:55;;;;;;;10.33;10.03;;;13.10;99.90;;;;;;4985919;28;21045;-80
2023/07/06 02:12:24;;;;;;;9.80;9.50;;;13.20;99.90;;;;;;4989777;28;20221;-79
2023/07/06 02:14:53;;;;;;;10.00;9.70;;;13.20;99.90;;;;;;4997706;28;20225;-79
2023/07/06 02:17:27;;;;;;;10.10;9.80;;;13.30;99.90;;;;;;4995637;28;20266;-79
2023/07/06 02:19:55;;;;;;;10.10;9.80;;;13.30;99.90;;;;;;4988773;28;20316;-79
2023/07/06 02:22:25;;;;;;;9.90;9.60;;;13.40;99.90;;;;;;4985976;28;20217;-80
2023/07/06 02:24:54;;;;;;;9.40;9.10;;;13.40;99.90;;;;;;4985041;28;20226;-79
2023/07/06 02:27:25;;;;;;;9.30;9.00;;;13.50;99.90;;;;;;4985611;28;20244;-79
2023/07/06 02:29:55;;;;;;;9.67;9.37;;;13.50;99.90;;;;;;4985984;28;20332;-80
2023/07/06 02:32:25;;;;;;;9.80;9.50;;;13.50;99.90;;;;;;4984561;28;20226;-80
2023/07/06 02:34:54;;;;;;;10.00;9.70;;;13.60;99.90;;;;;;5001055;28;20225;-79
2023/07/06 02:37:24;;;;;;;9.90;9.60;;;13.60;99.90;;;;;;5003885;28;20240;-80
2023/07/06 02:39:52;;;;;;;9.77;9.47;;;13.70;99.90;;;;;;5004394;28;20241;-80
2023/07/06 02:42:22;;;;;;;10.10;9.80;;;13.70;99.90;;;;;;5003621;28;20237;-79
2023/07/06 02:44:52;;;;;;;9.80;9.50;;;13.60;99.90;;;;;;5004245;28;20233;-79
2023/07/06 02:47:21;;;;;;;9.90;9.60;;;13.60;99.90;;;;;;5003674;28;20229;-79
2023/07/06 02:49:53;;;;;;;10.00;9.70;;;13.60;99.90;;;;;;5003898;28;20252;-79
2023/07/06 02:52:20;;;;;;;10.83;10.53;;;13.60;99.90;;;;;;5004830;28;20274;-80
2023/07/06 02:54:51;;;;;;;10.40;10.10;;;13.50;99.90;;;;;;5005266;28;20240;-86
2023/07/06 02:57:19;;;;;;;10.23;9.93;;;13.50;99.90;;;;;;5006928;28;20232;-83
2023/07/06 02:59:48;;;;;;;10.37;10.07;;;13.50;99.90;;;;;;5004737;28;20269;-84
2023/07/06 03:02:19;;;;;;;10.37;10.07;;;13.40;99.90;;;;;;5005815;28;20292;-83
2023/07/06 03:04:49;;;;;;;10.30;10.00;;;13.30;99.90;;;;;;5005508;28;20217;-83
2023/07/06 03:10:04;;;;;;;10.50;10.20;;;13.20;99.90;;;;;;5006181;28;20252;-83
2023/07/06 03:12:37;;;;;;;10.47;10.17;;;13.20;99.90;;;;;;5005542;28;20228;-83
2023/07/06 03:17:51;;;;;;;10.70;10.40;;;13.10;99.90;;;;;;5003481;28;20233;-83
2023/07/06 03:20:22;;;;;;;10.50;10.20;;;13.10;99.90;;;;;;5005475;28;20273;-84
2023/07/06 03:22:58;;;;;;;10.23;9.93;;;13.10;99.90;;;;;;5010744;28;20225;-83
2023/07/06 03:25:28;;;;;;;10.23;9.93;;;13.10;99.90;;;;;;5011166;28;20221;-83
2023/07/06 03:30:46;;;;;;;10.50;10.20;;;13.10;99.90;;;;;;5009515;28;20240;-82
2023/07/06 03:33:19;;;;;;;10.10;9.80;;;13.10;99.90;;;;;;5007406;28;20236;-83
2023/07/06 03:35:52;;;;;;;10.23;9.93;;;13.10;99.90;;;;;;5005727;28;20296;-83
2023/07/06 03:38:33;;;;;;;10.03;9.73;;;13.00;99.90;;;;;;5005083;28;20233;-83
2023/07/06 03:41:03;;;;;;;10.10;9.80;;;13.00;99.90;;;;;;5009029;28;20236;-83
2023/07/06 03:43:38;;;;;;;9.90;9.60;;;13.00;99.90;;;;;;5007511;28;20220;-82
2023/07/06 03:46:09;;;;;;;9.97;9.67;;;13.10;99.90;;;;;;5006598;28;20284;-82
2023/07/06 03:48:38;;;;;;;10.10;9.80;;;13.10;99.90;;;;;;5005760;28;20240;-82
2023/07/06 03:51:14;;;;;;;9.83;9.53;;;13.20;99.90;;;;;;5005840;28;20229;-82
2023/07/06 03:53:52;;;;;;;10.20;9.90;;;13.20;99.90;;;;;;4991113;28;20221;-82
2023/07/06 03:56:27;;;;;;;10.20;9.90;;;13.30;99.90;;;;;;5004713;28;20213;-82
2023/07/06 03:59:00;;;;;;;10.00;9.70;;;13.30;99.90;;;;;;5005621;28;20239;-82
2023/07/06 04:01:33;;;;;;;10.13;9.83;;;13.30;99.90;;;;;;5005429;28;20297;-83
2023/07/06 04:04:08;;;;;;;9.90;9.60;;;13.40;99.90;;;;;;5005253;28;20260;-82
2023/07/06 04:06:47;;;;;;;9.70;9.40;;;13.40;99.90;;;;;;5005778;28;20232;-82
2023/07/06 04:09:18;;;;;;;9.70;9.40;;;13.30;99.90;;;;;;5005736;28;20243;-83
2023/07/06 04:11:47;;;;;;;9.90;9.60;;;13.40;99.90;;;;;;5004824;28;20259;-83
2023/07/06 04:14:15;;;;;;;10.13;9.83;;;13.30;99.90;;;;;;5003857;28;20244;-83
2023/07/06 04:16:46;;;;;;;10.33;10.03;;;13.30;99.90;;;;;;5004946;28;20225;-82
2023/07/06 04:19:22;;;;;;;10.13;9.83;;;13.40;99.90;;;;;;5006445;28;20229;-82
2023/07/06 04:22:03;;;;;;;10.20;9.90;;;13.40;99.90;;;;;;5007826;28;20236;-83
2023/07/06 04:27:18;;;;;;;10.23;9.93;;;13.50;99.90;;;;;;5005510;28;20221;-83
2023/07/06 04:29:58;;;;;;;10.90;10.60;;;13.50;99.90;;;;;;5005266;28;20267;-82
2023/07/06 04:32:31;;;;;;;10.50;10.20;;;13.60;99.90;;;;;;5005299;28;20232;-84
2023/07/06 04:35:13;;;;;;;10.60;10.30;;;13.60;99.90;;;;;;5006463;28;20280;-83
2023/07/06 04:37:51;;;;;;;10.43;10.13;;;13.60;99.90;;;;;;5005665;28;20221;-82
2023/07/06 04:40:32;;;;;;;10.73;10.43;;;13.60;99.90;;;;;;5005668;28;20291;-83
2023/07/06 04:45:47;;;;;;;10.87;10.57;;;13.60;99.90;;;;;;5005014;28;20221;-83
2023/07/06 04:51:12;;;;;;;10.63;10.33;;;13.80;99.90;;;;;;5006203;28;20221;-83
2023/07/06 04:53:40;;;;;;;10.57;10.27;;;13.80;99.90;;;;;;5006178;28;20292;-83
2023/07/06 04:56:21;;;;;;;10.60;10.30;;;13.80;99.90;;;;;;5006466;28;20232;-81
2023/07/06 04:58:49;;;;;;;10.40;10.10;;;13.80;99.90;;;;;;5007232;28;20236;-81
2023/07/06 05:01:24;;;;;;;10.53;10.23;;;13.90;99.90;;;;;;5004556;28;20291;-82
2023/07/06 05:03:57;;;;;;;10.50;10.20;;;13.90;99.90;;;;;;5003579;28;20236;-82
2023/07/06 05:06:25;;;;;;;10.40;10.10;;;13.90;99.90;;;;;;5003428;28;20233;-81
2023/07/06 05:08:56;;;;;;;10.30;10.00;;;14.00;99.90;;;;;;5004339;28;20217;-82
2023/07/06 05:11:30;;;;;;;10.05;9.75;;;14.10;99.90;;;;;;5005001;28;20240;-82
2023/07/06 05:14:04;;;;;;;10.25;9.95;;;14.20;99.90;;;;;;5005166;28;20239;-83
2023/07/06 05:16:34;;;;;;;10.30;10.00;;;14.30;99.90;;;;;;5004596;28;20252;-83
2023/07/06 05:19:10;;;;;;;10.40;10.10;;;14.40;99.90;;;;;;5004288;28;20236;-83
2023/07/06 05:21:40;;;;;;;10.40;10.10;;;14.60;99.90;;;;;;5004972;28;20232;-83
2023/07/06 05:24:11;;;;;;;10.50;10.20;;;14.60;99.90;;;;;;5004778;28;20244;-83
2023/07/06 05:26:47;;;;;;;10.35;10.05;;;14.70;99.90;;;;;;5005330;28;20233;-83
2023/07/06 05:29:18;;;;;;;10.50;10.20;;;14.70;99.90;;;;;;5007710;28;20240;-83
2023/07/06 05:31:52;;;;;;;10.10;9.80;;;14.70;99.90;;;;;;5005425;28;20229;-83
2023/07/06 05:37:11;;;;;;;10.52;10.23;;;14.80;99.90;;;;;;5004228;28;20236;-82
2023/07/06 05:39:42;;;;;;;10.40;10.10;;;14.80;99.90;;;;;;5004409;28;20217;-82
2023/07/06 05:42:31;;;;;;;10.63;10.32;;;14.80;99.90;;;;;;5004310;28;20243;-82
2023/07/06 05:44:59;;;;;;;10.65;10.35;;;15.00;99.90;;;;;;5005193;28;20232;-82
2023/07/06 05:47:34;;;;;;;10.75;10.45;;;15.10;99.90;;;;;;5005498;28;20263;-83
2023/07/06 05:55:48;;;;;;;10.57;10.27;;;15.50;99.90;;;;;;5006619;28;20256;-82
2023/07/06 05:58:20;;;;;;;10.52;10.23;;;15.70;99.90;;;;;;5004783;28;20281;-82
2023/07/06 06:00:52;;;;;;;10.43;10.13;;;15.70;99.90;;;;;;5005169;28;20244;-82
2023/07/06 06:03:28;;;;;;;10.73;10.43;;;15.80;99.90;;;;;;5005440;28;20319;-83
2023/07/06 06:05:57;;;;;;;10.40;10.10;;;16.00;99.90;;;;;;5005820;28;20224;-82
2023/07/06 06:08:44;;;;;;;10.50;10.20;;;16.10;99.90;;;;;;5007839;28;20217;-82
2023/07/06 06:11:22;;;;;;;10.20;9.90;;;16.20;99.90;;;;;;5018573;28;20236;-82
2023/07/06 06:13:55;;;;;;;10.30;10.00;;;16.30;99.90;;;;;;5018558;28;20248;-82
2023/07/06 06:16:28;;;;;;;10.30;10.00;;;16.40;99.90;;;;;;5013257;28;20233;-82
2023/07/06 06:19:07;;;;;;;10.02;9.73;;;16.60;99.90;;;;;;5009617;28;20237;-83
2023/07/06 06:21:36;;;;;;;10.02;9.73;;;16.70;99.90;;;;;;5006048;28;20239;-83
2023/07/06 06:24:08;;;;;;;10.50;10.20;;;16.90;99.90;;;;;;5005559;28;20463;-84
2023/07/06 06:26:37;;;;;;;10.05;9.75;;;17.00;99.90;;;;;;5006932;28;20248;-84
2023/07/06 06:29:09;;;;;;;9.93;9.63;;;17.30;99.90;;;;;;5005910;28;20300;-85
2023/07/06 06:31:45;;;;;;;10.00;9.70;;;17.60;99.90;;;;;;5003416;28;20228;-87
2023/07/06 06:34:13;;;;;;;10.07;9.77;;;17.80;99.90;;;;;;5004932;28;20244;-84
2023/07/06 06:36:42;;;;;;;10.05;9.75;;;18.00;99.90;;;;;;5006589;28;20237;-84
2023/07/06 06:39:12;;;;;;;10.27;9.98;;;18.20;99.90;;;;;;5006043;28;20745;-84
2023/07/06 06:41:41;;;;;;;10.40;10.10;;;18.30;99.90;;;;;;5006289;28;20319;-84
2023/07/06 06:44:13;;;;;;;10.52;10.23;;;18.40;99.90;;;;;;5006373;28;20336;-86
2023/07/06 06:46:40;;;;;;;10.30;10.00;;;18.50;99.90;;;;;;5008228;28;20319;-83
2023/07/06 06:49:42;;;;;;;10.30;10.00;;;18.70;99.90;;;;;;5007055;28;20236;-81
2023/07/06 06:52:14;;;;;;;10.45;10.15;;;18.80;99.90;;;;;;5007143;28;20217;-82
2023/07/06 06:54:51;;;;;;;10.30;10.00;;;19.00;99.90;;;;;;5009903;28;20233;-84
2023/07/06 06:57:22;;;;;;;10.20;9.90;;;19.20;99.90;;;;;;5017819;28;20240;-81
2023/07/06 07:00:06;;;;;;;9.80;9.50;;;19.30;99.90;;;;;;5021744;28;20288;-81
2023/07/06 07:02:50;;;;;;;9.60;9.30;;;19.30;99.90;;;;;;5021950;28;20217;-81
2023/07/06 07:05:18;;;;;;;9.60;9.30;;;19.40;99.90;;;;;;5022022;28;20321;-80
2023/07/06 07:07:47;;;;;;;9.70;9.40;;;19.40;99.90;;;;;;5021467;28;20208;-80
2023/07/06 07:10:15;;;;;;;9.50;9.20;;;19.50;99.90;;;;;;5020897;28;20240;-80
2023/07/06 07:12:44;;;;;;;10.35;10.05;;;19.60;99.90;;;;;;5020930;28;20220;-80
2023/07/06 07:15:15;;;;;;;10.52;10.23;;;19.80;99.90;;;;;;5019307;28;20296;-77
2023/07/06 07:17:45;;;;;;;10.35;10.05;;;19.90;99.90;;;;;;5019980;28;20235;-77
2023/07/06 07:20:13;;;;;;;10.32;10.02;;;20.00;99.90;;;;;;5013617;28;20229;-81
2023/07/06 07:22:44;;;;;;;10.30;10.00;;;20.10;99.90;;;;;;5016447;28;20237;-81
2023/07/06 07:25:12;;;;;;;10.70;10.40;;;20.20;99.90;;;;;;5008948;28;20233;-81
2023/07/06 07:27:41;;;;;;;10.50;10.20;;;20.30;99.90;;;;;;5008687;28;20225;-81
2023/07/06 07:30:11;;;;;;;10.45;10.15;;;20.30;99.90;;;;;;5007526;28;20263;-80
2023/07/06 07:32:43;;;;;;;10.60;10.30;;;20.20;99.90;;;;;;5008131;28;20296;-80
2023/07/06 07:35:11;;;;;;;10.50;10.20;;;20.30;99.90;;;;;;5007193;28;20252;-81
2023/07/06 07:37:38;;;;;;;10.40;10.10;;;20.30;99.90;;;;;;5009495;28;20323;-81
2023/07/06 07:40:15;;;;;;;10.45;10.15;;;20.40;99.90;;;;;;5006785;28;20260;-79
2023/07/06 07:42:46;;;;;;;10.30;10.00;;;20.30;99.90;;;;;;5007155;28;20781;-79
2023/07/06 07:45:18;;;;;;;9.88;9.57;;;20.30;99.90;;;;;;5005284;28;20256;-82
2023/07/06 07:47:48;;;;;;;10.45;10.15;;;20.40;99.90;;;;;;5003924;28;20236;-78
2023/07/06 07:50:17;;;;;;;10.50;10.20;;;20.50;99.90;;;;;;5027070;28;20236;-79
2023/07/06 07:52:45;;;;;;;10.88;10.57;;;20.60;99.90;;;;;;5031540;28;20236;-79
2023/07/06 07:55:14;;;;;;;10.98;10.68;;;20.70;99.90;;;;;;5032978;28;20300;-79
2023/07/06 07:57:43;;;;;;;10.63;10.32;;;20.80;99.90;;;;;;5032719;28;20232;-78
2023/07/06 08:00:14;;;;;;;10.60;10.30;;;20.70;99.90;;;;;;5033405;28;20240;-80
2023/07/06 08:02:42;;;;;;;10.43;10.13;;;20.90;99.90;;;;;;5034305;28;20232;-78
2023/07/06 08:05:13;;;;;;;10.40;10.10;;;21.00;99.90;;;;;;5021161;28;20228;-76
2023/07/06 08:07:40;;;;;;;10.15;9.85;;;21.20;99.90;;;;;;5019449;28;20232;-76
2023/07/06 08:10:09;;;;;;;10.50;10.20;;;21.30;99.90;;;;;;5019493;28;20246;-76
2023/07/06 08:12:36;;;;;;;10.40;10.10;;;21.30;99.90;;;;;;5019959;28;20235;-78
2023/07/06 08:15:04;;;;;;;10.32;10.02;;;21.30;99.90;;;;;;5019177;28;20246;-76
2023/07/06 08:17:32;;;;;;;10.50;10.20;;;21.40;99.90;;;;;;5019135;28;20323;-78
2023/07/06 08:19:59;;;;;;;10.50;10.20;;;21.60;99.90;;;;;;5020994;28;20244;-77
2023/07/06 08:22:29;;;;;;;10.60;10.30;;;21.70;99.90;;;;;;5020484;28;20230;-77
2023/07/06 08:24:57;;;;;;;10.60;10.30;;;21.70;99.90;;;;;;5020407;28;20236;-77
2023/07/06 08:27:24;;;;;;;10.60;10.30;;;21.70;99.90;;;;;;5023770;28;20242;-77
2023/07/06 08:29:52;;;;;;;10.60;10.30;;;21.60;99.90;;;;;;5021633;28;20268;-77
2023/07/06 08:32:21;;;;;;;10.43;10.13;;;21.60;99.90;;;;;;5020794;28;20222;-77
2023/07/06 08:34:49;;;;;;;10.60;10.30;;;21.80;99.90;;;;;;5023504;28;20247;-77
2023/07/06 08:37:18;;;;;;;10.70;10.40;;;22.10;99.90;;;;;;5025007;28;20243;-77
2023/07/06 08:39:47;;;;;;;10.60;10.30;;;22.30;99.90;;;;;;5023116;28;20236;-77
2023/07/06 08:42:18;;;;;;;10.70;10.40;;;22.50;99.90;;;;;;5022231;28;20235;-76
2023/07/06 08:44:51;;;;;;;10.50;10.20;;;22.50;99.90;;;;;;5029671;28;20240;-76
2023/07/06 08:47:19;;;;;;;10.30;10.00;;;22.60;99.90;;;;;;5035311;28;20228;-75
2023/07/06 08:49:47;;;;;;;10.70;10.40;;;22.70;99.90;;;;;;5017824;28;20232;-75
2023/07/06 08:52:18;;;;;;;10.35;10.05;;;22.80;99.90;;;;;;5012296;28;20228;-76
2023/07/06 08:54:52;;;;;;;10.40;10.10;;;23.00;99.90;;;;;;5009413;28;20247;-77
2023/07/06 08:57:24;;;;;;;10.30;10.00;;;23.30;99.90;;;;;;4999799;28;20232;-76
2023/07/06 08:59:52;;;;;;;10.20;9.90;;;23.30;99.90;;;;;;5001495;28;20327;-78
2023/07/06 09:02:23;;;;;;;10.20;9.90;;;23.30;99.90;;;;;;5000088;28;20249;-75
2023/07/06 09:04:53;;;;;;;10.45;10.15;;;23.50;99.90;;;;;;5000624;28;20262;-76
2023/07/06 09:07:28;;;;;;;10.40;10.10;;;23.50;99.90;;;;;;4999398;28;20257;-76
2023/07/06 09:09:57;;;;;;;10.38;10.07;;;23.40;99.90;;;;;;4998996;28;20236;-76
2023/07/06 09:12:32;;;;;;;10.43;10.13;;;23.40;99.90;;;;;;4999386;28;20280;-77
2023/07/06 09:15:00;;;;;;;10.70;10.40;;;23.50;99.90;;;;;;4998820;28;20240;-78
2023/07/06 09:17:28;;;;;;;10.68;10.38;;;23.90;99.90;;;;;;4998977;28;20314;-77
2023/07/06 09:19:56;;;;;;;10.65;10.35;;;24.10;99.90;;;;;;4998617;28;20263;-77
2023/07/06 09:22:24;;;;;;;10.63;10.32;;;24.30;99.90;;;;;;4998237;28;20229;-77
2023/07/06 09:24:52;;;;;;;10.52;10.23;;;24.40;99.90;;;;;;4981616;28;20347;-77
2023/07/06 09:27:26;;;;;;;10.23;9.93;;;24.60;99.90;;;;;;4990779;28;20297;-77
2023/07/06 09:30:00;;;;;;;10.70;10.40;;;24.70;99.90;;;;;;4983786;28;20236;-76
2023/07/06 09:32:32;;;;;;;10.68;10.38;;;24.80;99.90;;;;;;4985223;28;20316;-78
2023/07/06 09:35:06;;;;;;;10.80;10.50;;;25.10;99.90;;;;;;4980344;28;20683;-77
2023/07/06 09:37:33;;;;;;;10.90;10.60;;;25.20;99.90;;;;;;4979880;28;20241;-77
2023/07/06 09:40:04;;;;;;;10.60;10.30;;;25.40;99.90;;;;;;4980459;28;20234;-77
2023/07/06 09:42:34;;;;;;;10.80;10.50;;;25.50;99.90;;;;;;4981224;28;20228;-77
2023/07/06 09:45:04;;;;;;;10.55;10.25;;;25.40;99.90;;;;;;4979364;28;20245;-77
2023/07/06 09:47:33;;;;;;;10.80;10.50;;;25.30;99.90;;;;;;4979989;28;20232;-77
2023/07/06 09:50:06;;;;;;;10.80;10.50;;;25.20;99.90;;;;;;4980357;28;20241;-79
2023/07/06 09:52:36;;;;;;;10.50;10.20;;;25.20;99.90;;;;;;4980136;28;20229;-79
2023/07/06 09:55:14;;;;;;;10.80;10.50;;;25.40;99.90;;;;;;4980747;28;20229;-77
2023/07/06 09:57:44;;;;;;;10.80;10.50;;;25.60;99.90;;;;;;4981031;28;20265;-77
2023/07/06 10:00:18;;;;;;;10.55;10.25;;;25.80;99.90;;;;;;4979979;28;20243;-79
2023/07/06 10:02:59;;;;;;;11.20;10.90;;;26.00;99.90;;;;;;4978973;28;20517;-78
2023/07/06 10:05:40;;;;;;;10.30;10.00;;;26.30;99.90;;;;;;4981211;28;20320;-83
2023/07/06 10:08:12;;;;;;;10.88;10.57;;;26.70;99.90;;;;;;4982096;28;20248;-77
2023/07/06 10:11:05;;;;;;;10.65;10.35;;;27.00;99.90;;;;;;5000371;28;20240;-77
2023/07/06 10:13:41;;;;;;;10.45;10.15;;;27.30;99.90;;;;;;5002597;28;20279;-76
2023/07/06 10:16:22;;;;;;;10.70;10.40;;;27.40;99.90;;;;;;5004293;28;20244;-77
2023/07/06 10:18:53;;;;;;;10.55;10.25;;;27.30;99.90;;;;;;5002306;28;20233;-77
2023/07/06 10:21:27;;;;;;;10.43;10.13;;;27.20;99.90;;;;;;5002606;28;20296;-78
2023/07/06 10:24:03;;;;;;;10.60;10.30;;;27.00;99.90;;;;;;5004330;28;20224;-78
2023/07/06 10:26:34;;;;;;;10.43;10.13;;;26.90;99.90;;;;;;5003561;28;20244;-76
2023/07/06 10:29:06;;;;;;;10.63;10.32;;;27.00;99.90;;;;;;5003521;28;20237;-76
2023/07/06 10:31:41;;;;;;;11.02;10.73;;;27.30;99.90;;;;;;5003729;28;20291;-76
2023/07/06 10:34:15;;;;;;;11.00;10.70;;;27.80;99.90;;;;;;5002060;28;20228;-77
2023/07/06 10:36:44;;;;;;;10.98;10.68;;;28.10;99.90;;;;;;5002060;28;20241;-77
2023/07/06 10:40:00;;;;;;;11.10;10.80;;;27.70;99.90;;;;;;5002310;28;20243;-76
2023/07/06 10:42:32;;;;;;;10.90;10.60;;;26.20;99.90;;;;;;5001849;28;20225;-76
2023/07/06 10:45:02;;;;;;;10.63;10.32;;;25.40;99.90;;;;;;5001454;28;20233;-76
2023/07/06 10:47:39;;;;;;;10.80;10.50;;;25.60;99.90;;;;;;5002502;28;20244;-76
2023/07/06 10:50:28;;;;;;;10.85;10.55;;;25.30;99.90;;;;;;5002728;28;20243;-76
2023/07/06 10:53:21;;;;;;;11.00;10.70;;;25.70;99.90;;;;;;5001486;28;20291;-77
2023/07/06 10:56:04;;;;;;;10.70;10.40;;;26.00;99.90;;;;;;5001157;28;20228;-76
2023/07/06 10:58:34;;;;;;;10.82;10.52;;;26.20;99.90;;;;;;5001700;28;20244;-76
2023/07/06 11:01:10;;;;;;;11.00;10.70;;;26.70;99.90;;;;;;5001005;28;20233;-76
2023/07/06 11:03:39;;;;;;;10.90;10.60;;;27.40;99.90;;;;;;5000500;28;20233;-76
2023/07/06 11:06:12;;;;;;;10.98;10.68;;;28.10;99.90;;;;;;5001167;28;20239;-76
2023/07/06 11:09:21;;;;;;;10.80;10.50;;;28.60;99.90;;;;;;5000728;28;20237;-76
2023/07/06 11:12:20;;;;;;;11.10;10.80;;;28.90;99.90;;;;;;4999657;28;20229;-78
2023/07/06 11:14:48;;;;;;;11.25;10.95;;;29.20;99.90;;;;;;4982394;28;20241;-76
2023/07/06 11:17:36;;;;;;;11.05;10.75;;;29.20;99.90;;;;;;5001469;28;20243;-77
2023/07/06 11:20:11;;;;;;;11.25;10.95;;;29.40;99.90;;;;;;5006071;28;20300;-77
2023/07/06 11:22:41;;;;;;;10.90;10.60;;;29.70;99.90;;;;;;5000605;28;20232;-79
2023/07/06 11:25:14;;;;;;;10.68;10.38;;;29.30;99.90;;;;;;5006417;28;20272;-78
2023/07/06 11:27:45;;;;;;;10.90;10.60;;;28.20;99.90;;;;;;5004451;28;20241;-77
2023/07/06 11:30:17;;;;;;;10.60;10.30;;;27.50;99.90;;;;;;5003899;28;20240;-77
2023/07/06 11:33:11;;;;;;;10.65;10.35;;;27.20;99.90;;;;;;5003388;28;20269;-77
2023/07/06 11:35:59;;;;;;;10.60;10.30;;;27.40;99.90;;;;;;5002581;28;20232;-77
2023/07/06 11:38:42;;;;;;;11.00;10.70;;;27.70;99.90;;;;;;5003153;28;20225;-77
2023/07/06 11:41:24;;;;;;;10.95;10.65;;;28.20;99.90;;;;;;5004023;28;20240;-78
2023/07/06 11:44:24;;;;;;;10.98;10.68;;;28.70;99.90;;;;;;5004110;28;20976;-78
2023/07/06 11:47:15;;;;;;;10.65;10.35;;;29.00;99.90;;;;;;5003670;28;20239;-76
2023/07/06 11:49:47;;;;;;;10.95;10.65;;;29.00;99.90;;;;;;5001193;28;20312;-77
2023/07/06 11:52:20;;;;;;;11.18;10.88;;;29.00;99.90;;;;;;5001780;28;20233;-76
2023/07/06 11:55:05;;;;;;;10.93;10.63;;;29.20;99.90;;;;;;5000767;28;20257;-76
2023/07/06 11:57:43;;;;;;;10.80;10.50;;;29.50;99.90;;;;;;5000457;28;20292;-76
2023/07/06 12:03:02;;;;;;;10.57;10.27;;;29.20;99.90;;;;;;4993202;28;20233;-77
2023/07/06 12:05:35;;;;;;;10.50;10.20;;;28.50;99.90;;;;;;4980837;28;20241;-76
2023/07/06 12:08:14;;;;;;;10.80;10.50;;;28.00;99.90;;;;;;4981131;28;20327;-77
2023/07/06 12:10:47;;;;;;;10.55;10.25;;;27.70;99.90;;;;;;4980434;28;20232;-77
2023/07/06 12:13:22;;;;;;;10.75;10.45;;;27.10;99.90;;;;;;4984128;28;20241;-76
2023/07/06 12:15:51;;;;;;;11.18;10.88;;;27.20;99.90;;;;;;4980136;28;20241;-77
2023/07/06 12:18:20;;;;;;;11.02;10.73;;;27.70;99.90;;;;;;4979239;28;20233;-77
2023/07/06 12:20:54;;;;;;;11.15;10.85;;;28.30;99.90;;;;;;4979593;28;20253;-77
2023/07/06 12:23:24;;;;;;;10.93;10.63;;;28.80;99.90;;;;;;4979613;28;20243;-78
2023/07/06 12:25:55;;;;;;;10.75;10.45;;;28.80;99.90;;;;;;4978545;28;20241;-77
2023/07/06 12:28:29;;;;;;;10.70;10.40;;;28.70;99.90;;;;;;4979224;28;20283;-77
2023/07/06 12:30:58;;;;;;;10.75;10.45;;;29.10;99.90;;;;;;4979896;28;20229;-76
2023/07/06 12:33:28;;;;;;;10.68;10.38;;;29.50;99.90;;;;;;4979479;28;20233;-76
2023/07/06 12:35:58;;;;;;;10.60;10.30;;;29.70;99.90;;;;;;4979025;28;20249;-76
2023/07/06 12:38:25;;;;;;;10.70;10.40;;;30.00;99.90;;;;;;4978558;28;20237;-77
2023/07/06 12:41:13;;;;;;;10.57;10.27;;;30.00;99.90;;;;;;4979540;28;20230;-77
2023/07/06 12:43:41;;;;;;;10.52;10.23;;;30.50;99.90;;;;;;4979199;28;20237;-76
2023/07/06 12:46:10;;;;;;;10.98;10.68;;;30.90;99.90;;;;;;4979726;28;20433;-76
2023/07/06 12:48:46;;;;;;;11.07;10.77;;;31.20;99.90;;;;;;4979817;28;20241;-76
2023/07/06 12:51:21;;;;;;;11.05;10.75;;;31.40;99.90;;;;;;4979838;28;20236;-77
2023/07/06 12:53:49;;;;;;;11.05;10.75;;;31.40;99.90;;;;;;4979493;28;20237;-77
2023/07/06 12:56:21;;;;;;;10.88;10.57;;;31.30;99.90;;;;;;4979129;28;20238;-77
2023/07/06 12:58:55;;;;;;;10.73;10.43;;;31.50;99.90;;;;;;4981977;28;20245;-78
2023/07/06 13:01:31;;;;;;;10.80;10.50;;;31.70;99.90;;;;;;4980722;28;20342;-77
2023/07/06 13:04:08;;;;;;;11.15;10.85;;;31.80;99.90;;;;;;4980177;28;20280;-78
2023/07/06 13:06:45;;;;;;;11.02;10.73;;;31.80;99.90;;;;;;4980201;28;20263;-77
2023/07/06 13:09:19;;;;;;;11.10;10.80;;;31.90;99.90;;;;;;4979843;28;20292;-77
2023/07/06 13:11:52;;;;;;;11.27;10.98;;;31.00;99.90;;;;;;4984771;28;20213;-78
2023/07/06 13:14:24;;;;;;;11.00;10.70;;;30.60;99.90;;;;;;4980078;28;20240;-78
2023/07/06 13:16:58;;;;;;;10.80;10.50;;;30.00;99.90;;;;;;4981012;28;20244;-77
2023/07/06 13:19:26;;;;;;;11.30;11.00;;;29.50;99.90;;;;;;4980296;28;20271;-78
2023/07/06 13:21:58;;;;;;;10.90;10.60;;;29.20;99.90;;;;;;4981358;28;20241;-79
2023/07/06 13:24:28;;;;;;;10.60;10.30;;;28.50;99.90;;;;;;5019280;28;20240;-78
2023/07/06 13:26:56;;;;;;;10.93;10.63;;;28.30;99.90;;;;;;5019130;28;20286;-78
2023/07/06 13:29:26;;;;;;;10.90;10.60;;;28.20;99.90;;;;;;5018611;28;20231;-77
2023/07/06 13:31:56;;;;;;;11.10;10.80;;;28.60;99.90;;;;;;5018818;28;20224;-78